Gratiot Community, MI

3:56 PM EDT on May 30, 2015 (GMT -0400)
Gratiot Community | | Change Station
CLOSE
Current Station
Airport
Location: Alma,
Elevation: 751 ft
Nearby Weather Stations

Elev 751 ft 43.32 °N, 84.69 °W | Updated 26 minutes ago

Heavy Rain
Heavy Rain
60 °F
Feels Like 60 °F
N
13
Wind Variable Wind from North
Gusts 17 mph

Today
High -- | Low -- °F
--% Chance of Precip.
Yesterday
High -- | Low -- °F
Precip. -- in
6:02 AM 9:10 PM
Waxing Gibbous, 92% visible
Pressure 30.03 in
Visibility 4.0 miles
Clouds Overcast 700 ft
Dew Point 59 °F
Humidity 96%
Rainfall 0.00 in
Snow Depth Not available.
UV 3 out of 12
Pollen .80 out of 12
Air Quality Not available.
Flu Activity Sporadic
METAR KAMN 301930Z AUTO 36011G15KT 4SM +RA OVC007 16/15 A3003 RMK AO2 T01550148

More Conditions Fewer Conditions

Pressure 30.03 in
Visibility 4.0 miles
Clouds Overcast 700 ft
Dew Point 59 °F
Humidity 96%
Rainfall 0.00 in
Snow Depth Not available.
UV 3 out of 12
Pollen .80 out of 12
Air Quality Not available.
Flu Activity Sporadic
METAR KAMN 301930Z AUTO 36011G15KT 4SM +RA OVC007 16/15 A3003 RMK AO2 T01550148

More Conditions Fewer Conditions

10-Day Weather Forecast

Almanac

Astronomy

May. 30, 2015 Rise Set
Actual Time
Civil Twilight
Nautical Twilight
Astronomical Twilight
Moon
Length of Visible Light
Length of Day
Tomorrow will be .
, % of the Moon is Illuminated

Today's Extremes

State Highs State Lows

Community

WunderPhotos

Upload Photos

1,825,605 photos uploaded!

WunderBlogs® & News

Nearby

Air Quality

  Air Quality AQ Index Pollutant
Not available.

Snow Depth

Station Depth Elevation

Earthquake Activity

City Distance Mag. Time & Date
Minimum magnitude displayed is 2.5.

Coastal Water Temperatures

Place Temperature

Stations

Nearby Weather Stations

Station Location Temp. Windchill Dew Point Humidity Wind Precip. Elev Updated Type